Time;durP1;ratioP1;P1;durP2;ratioP2;P2;SDS_P1;SDS_P2;PMS_P1;PMS_P2;Temp;Humidity;BMP_temperature;BMP_pressure;BME280_temperature;BME280_humidity;BME280_pressure;Samples;Min_cycle;Max_cycle;Signal;HPM_P1;HPM_P2
2023/12/31 00:00:26;;;;;;;0.50;0.10;;;9.70;99.90;;;;;;5024438;28;20477;-75
2023/12/31 00:02:59;;;;;;;0.50;0.10;;;9.70;99.90;;;;;;5026765;28;20483;-74
2023/12/31 00:05:27;;;;;;;0.50;0.10;;;9.70;99.90;;;;;;5026365;28;20849;-75
2023/12/31 00:07:55;;;;;;;0.50;0.10;;;9.60;99.90;;;;;;5026378;28;21144;-74
2023/12/31 00:10:23;;;;;;;0.50;0.10;;;9.60;99.90;;;;;;5032450;28;20466;-74
2023/12/31 00:12:51;;;;;;;0.50;0.10;;;9.60;99.90;;;;;;5026637;28;20824;-73
2023/12/31 00:15:20;;;;;;;0.50;0.10;;;9.60;99.90;;;;;;5026510;28;20479;-75
2023/12/31 00:17:48;;;;;;;0.50;0.10;;;;;;;;;;5022558;28;20480;-74
2023/12/31 00:20:17;;;;;;;0.50;0.10;;;9.70;99.90;;;;;;5029365;28;20468;-73
2023/12/31 00:22:44;;;;;;;0.50;0.10;;;9.70;99.90;;;;;;5017841;28;20514;-74
2023/12/31 00:25:13;;;;;;;0.50;0.10;;;9.70;99.90;;;;;;5026315;28;20446;-74
2023/12/31 00:27:42;;;;;;;0.50;0.10;;;;;;;;;;5024833;28;20518;-74
2023/12/31 00:30:11;;;;;;;0.50;0.10;;;9.60;99.90;;;;;;5025861;28;20487;-74
2023/12/31 00:32:41;;;;;;;0.50;0.10;;;9.60;99.90;;;;;;5023290;28;20450;-74
2023/12/31 00:35:09;;;;;;;0.50;0.10;;;9.60;99.90;;;;;;5027694;28;20456;-74
2023/12/31 00:37:37;;;;;;;0.50;0.10;;;9.50;99.90;;;;;;5025561;28;20474;-73
2023/12/31 00:40:06;;;;;;;0.50;0.10;;;9.50;99.90;;;;;;5027054;28;20485;-73
2023/12/31 00:42:35;;;;;;;0.50;0.10;;;;;;;;;;5029496;28;20492;-74
2023/12/31 00:45:04;;;;;;;0.50;0.10;;;9.40;99.90;;;;;;5024400;28;20488;-73
2023/12/31 00:47:32;;;;;;;0.50;0.10;;;9.40;99.90;;;;;;5023394;28;20465;-74
2023/12/31 00:50:01;;;;;;;0.50;0.10;;;9.40;99.90;;;;;;5028958;28;20448;-74
2023/12/31 00:52:29;;;;;;;0.50;0.10;;;9.30;99.90;;;;;;5029533;28;20504;-74
2023/12/31 00:54:57;;;;;;;0.50;0.10;;;9.20;99.90;;;;;;5022118;28;20440;-74
2023/12/31 00:57:24;;;;;;;0.50;0.10;;;9.20;99.90;;;;;;5021702;28;20481;-74
2023/12/31 00:59:52;;;;;;;0.50;0.10;;;9.10;99.90;;;;;;5030143;28;20486;-74
2023/12/31 01:02:21;;;;;;;0.50;0.10;;;9.00;99.90;;;;;;5029740;28;20928;-74
2023/12/31 01:04:49;;;;;;;0.50;0.10;;;9.00;99.90;;;;;;5021960;28;20492;-75
2023/12/31 01:07:18;;;;;;;0.50;0.10;;;9.00;99.90;;;;;;5027542;28;20491;-75
2023/12/31 01:09:46;;;;;;;0.50;0.10;;;9.00;99.90;;;;;;5030429;28;20467;-74
2023/12/31 01:12:14;;;;;;;0.50;0.10;;;9.00;99.90;;;;;;5020270;28;20530;-74
2023/12/31 01:14:42;;;;;;;0.50;0.10;;;9.00;99.90;;;;;;5030946;28;20501;-74
2023/12/31 01:17:10;;;;;;;0.50;0.10;;;9.00;99.90;;;;;;5021532;28;20520;-75
2023/12/31 01:19:38;;;;;;;0.50;0.10;;;8.90;99.90;;;;;;5029965;28;20456;-74
2023/12/31 01:22:06;;;;;;;0.50;0.10;;;9.00;99.90;;;;;;5021848;28;20448;-74
2023/12/31 01:24:35;;;;;;;0.50;0.10;;;9.00;99.90;;;;;;5028980;28;20851;-74
2023/12/31 01:27:03;;;;;;;0.50;0.10;;;9.00;99.90;;;;;;5021085;28;20512;-74
2023/12/31 01:29:33;;;;;;;0.50;0.10;;;;;;;;;;5029430;28;20974;-73
2023/12/31 01:32:01;;;;;;;0.50;0.10;;;9.10;99.90;;;;;;5021595;28;20935;-74
2023/12/31 01:34:28;;;;;;;0.50;0.10;;;9.20;99.90;;;;;;5021677;28;20938;-74
2023/12/31 01:36:56;;;;;;;0.50;0.10;;;9.20;99.90;;;;;;5029378;28;20465;-74
2023/12/31 01:39:24;;;;;;;0.50;0.10;;;9.10;99.90;;;;;;5029516;28;20457;-74
2023/12/31 01:41:53;;;;;;;0.50;0.10;;;9.10;99.90;;;;;;5036042;28;20550;-74
2023/12/31 01:44:21;;;;;;;0.50;0.10;;;9.00;99.90;;;;;;5038822;28;20511;-74
2023/12/31 01:46:49;;;;;;;0.50;0.10;;;8.90;99.90;;;;;;5031617;28;20488;-73
2023/12/31 01:49:17;;;;;;;0.50;0.10;;;8.80;99.90;;;;;;5037560;28;20458;-74
2023/12/31 01:51:45;;;;;;;0.50;0.10;;;8.70;99.90;;;;;;5026505;28;20449;-73
2023/12/31 01:54:13;;;;;;;0.50;0.10;;;8.70;99.90;;;;;;5025288;28;20439;-72
2023/12/31 01:56:42;;;;;;;0.50;0.10;;;8.70;99.90;;;;;;5023720;28;20489;-74
2023/12/31 01:59:12;;;;;;;0.50;0.10;;;8.70;99.90;;;;;;5023997;28;20459;-74
2023/12/31 02:01:40;;;;;;;0.50;0.10;;;8.60;99.90;;;;;;5029437;28;20447;-74
2023/12/31 02:04:08;;;;;;;0.50;0.10;;;8.60;99.90;;;;;;5017691;28;20536;-74
2023/12/31 02:06:36;;;;;;;0.50;0.10;;;8.50;99.90;;;;;;5030736;28;20569;-74
2023/12/31 02:09:06;;;;;;;0.50;0.10;;;8.50;99.90;;;;;;5031288;28;20472;-75
2023/12/31 02:11:35;;;;;;;0.50;0.10;;;8.40;99.90;;;;;;5033057;28;20443;-74
2023/12/31 02:14:03;;;;;;;0.50;0.10;;;8.40;99.90;;;;;;5032495;28;20431;-74
2023/12/31 02:16:32;;;;;;;0.50;0.10;;;8.40;99.90;;;;;;5018164;28;20591;-73
2023/12/31 02:19:00;;;;;;;0.50;0.10;;;8.50;99.90;;;;;;5016431;28;20444;-73
2023/12/31 02:21:29;;;;;;;0.50;0.10;;;8.60;99.90;;;;;;5030156;28;20447;-73
2023/12/31 02:23:57;;;;;;;0.50;0.10;;;8.60;99.90;;;;;;5033468;28;20475;-75
2023/12/31 02:26:27;;;;;;;0.50;0.10;;;8.70;99.90;;;;;;5026935;28;20559;-74
2023/12/31 02:28:55;;;;;;;0.50;0.10;;;8.70;99.90;;;;;;5021012;28;20471;-73
2023/12/31 02:31:23;;;;;;;0.50;0.10;;;8.80;99.90;;;;;;5028331;28;20931;-75
2023/12/31 02:33:50;;;;;;;0.50;0.10;;;8.70;99.90;;;;;;5030674;28;20469;-74
2023/12/31 02:36:18;;;;;;;0.90;0.90;;;8.70;99.90;;;;;;5031933;28;20451;-75
2023/12/31 02:38:46;;;;;;;5.50;0.73;;;8.70;99.90;;;;;;5032348;28;20525;-74
2023/12/31 02:41:14;;;;;;;0.50;0.10;;;8.60;99.90;;;;;;5032263;28;20883;-74
2023/12/31 02:43:43;;;;;;;0.60;0.40;;;8.50;99.90;;;;;;5034033;28;20439;-73
2023/12/31 02:46:11;;;;;;;0.50;0.10;;;8.40;99.90;;;;;;5027721;28;20525;-73
2023/12/31 02:48:39;;;;;;;0.50;0.10;;;8.30;99.90;;;;;;5015184;28;20484;-74
2023/12/31 02:51:09;;;;;;;0.50;0.10;;;8.30;99.90;;;;;;5025442;28;20547;-74
2023/12/31 02:53:36;;;;;;;0.50;0.10;;;8.30;99.90;;;;;;5036503;28;20449;-74
2023/12/31 02:56:05;;;;;;;0.60;0.20;;;8.20;99.90;;;;;;5035927;28;20437;-74
2023/12/31 02:58:33;;;;;;;0.50;0.10;;;;;;;;;;5027782;28;20463;-74
2023/12/31 03:01:02;;;;;;;0.50;0.10;;;8.20;99.90;;;;;;5028668;28;20950;-73
2023/12/31 03:03:32;;;;;;;0.50;0.10;;;8.20;99.90;;;;;;5019761;28;20438;-75
2023/12/31 03:05:59;;;;;;;0.60;0.20;;;8.20;99.90;;;;;;5020153;28;20550;-73
2023/12/31 03:08:28;;;;;;;0.50;0.10;;;;;;;;;;5035893;28;20480;-74
2023/12/31 03:10:55;;;;;;;0.50;0.10;;;8.30;99.90;;;;;;5035774;28;20482;-73
2023/12/31 03:13:23;;;;;;;0.50;0.10;;;8.30;99.90;;;;;;5027729;28;20531;-73
2023/12/31 03:15:52;;;;;;;0.57;0.17;;;;;;;;;;5015651;28;20602;-74
2023/12/31 03:18:21;;;;;;;0.50;0.10;;;8.40;99.90;;;;;;5024180;28;20445;-74
2023/12/31 03:20:49;;;;;;;0.50;0.10;;;8.30;99.90;;;;;;5033484;28;20443;-74
2023/12/31 03:23:17;;;;;;;0.50;0.10;;;8.30;99.90;;;;;;5021747;28;20472;-74
2023/12/31 03:25:45;;;;;;;0.50;0.10;;;8.30;99.90;;;;;;5016202;28;20554;-74
2023/12/31 03:28:13;;;;;;;0.50;0.10;;;8.40;99.90;;;;;;5035465;28;20468;-74
2023/12/31 03:30:41;;;;;;;0.50;0.10;;;8.40;99.90;;;;;;5028913;28;20450;-74
2023/12/31 03:33:10;;;;;;;0.50;0.10;;;8.40;99.90;;;;;;5023715;28;20465;-74
2023/12/31 03:35:39;;;;;;;0.50;0.10;;;8.30;99.90;;;;;;5023870;28;20446;-74
2023/12/31 03:38:07;;;;;;;0.50;0.10;;;8.40;99.90;;;;;;5015475;28;20978;-74
2023/12/31 03:40:35;;;;;;;0.50;0.20;;;8.40;99.90;;;;;;5024114;28;20596;-74
2023/12/31 03:43:03;;;;;;;0.50;0.10;;;8.40;99.90;;;;;;5015909;28;20441;-74
2023/12/31 03:45:31;;;;;;;0.50;0.10;;;8.40;99.90;;;;;;5033175;28;20487;-73
2023/12/31 03:47:59;;;;;;;0.50;0.10;;;8.40;99.90;;;;;;5035074;28;20464;-73
2023/12/31 03:50:27;;;;;;;0.50;0.10;;;8.40;99.90;;;;;;5035604;28;20454;-74
2023/12/31 03:52:56;;;;;;;0.50;0.10;;;8.40;99.90;;;;;;5016965;28;20446;-72
2023/12/31 03:55:24;;;;;;;0.50;0.10;;;8.40;99.90;;;;;;5015301;28;20440;-74
2023/12/31 03:57:52;;;;;;;0.50;0.10;;;8.30;99.90;;;;;;5017102;28;20477;-73
2023/12/31 04:00:20;;;;;;;0.50;0.10;;;8.20;99.90;;;;;;5026668;28;20441;-75
2023/12/31 04:02:48;;;;;;;0.50;0.10;;;8.00;99.90;;;;;;5033934;28;20465;-73
2023/12/31 04:05:16;;;;;;;0.50;0.10;;;7.90;99.90;;;;;;5020811;28;20479;-74
2023/12/31 04:07:44;;;;;;;0.50;0.10;;;7.80;99.90;;;;;;5014761;28;20823;-74
2023/12/31 04:10:16;;;;;;;0.50;0.10;;;7.80;99.90;;;;;;5015154;28;20448;-75
2023/12/31 04:12:43;;;;;;;0.50;0.10;;;7.80;99.90;;;;;;5032310;28;20439;-74
2023/12/31 04:15:11;;;;;;;0.50;0.10;;;7.70;99.90;;;;;;5026294;28;20482;-75
2023/12/31 04:17:39;;;;;;;0.50;0.10;;;7.80;99.90;;;;;;5025630;28;20467;-73
2023/12/31 04:20:08;;;;;;;0.50;0.10;;;7.80;99.90;;;;;;5023329;28;20550;-74
2023/12/31 04:22:36;;;;;;;0.50;0.10;;;7.70;99.90;;;;;;5031520;28;20453;-74
2023/12/31 04:25:04;;;;;;;0.50;0.10;;;7.70;99.90;;;;;;5018750;28;20479;-74
2023/12/31 04:27:38;;;;;;;0.50;0.10;;;7.80;99.90;;;;;;5026664;28;20551;-73
2023/12/31 04:30:07;;;;;;;0.50;0.10;;;7.90;99.90;;;;;;5015311;28;20443;-73
2023/12/31 04:32:35;;;;;;;0.50;0.10;;;7.90;99.90;;;;;;5014912;28;20460;-74
2023/12/31 04:35:03;;;;;;;0.50;0.10;;;8.00;99.90;;;;;;5018742;28;20467;-74
2023/12/31 04:37:31;;;;;;;0.50;0.10;;;8.00;99.90;;;;;;5026974;28;20512;-74
2023/12/31 04:39:59;;;;;;;0.50;0.10;;;8.00;99.90;;;;;;5028780;28;20443;-74
2023/12/31 04:42:27;;;;;;;3.07;2.87;;;8.00;99.90;;;;;;5036529;28;20456;-72
2023/12/31 04:44:59;;;;;;;0.50;0.10;;;8.00;99.90;;;;;;5034893;28;20450;-72
2023/12/31 04:47:30;;;;;;;0.50;0.10;;;8.00;99.90;;;;;;5024612;28;21162;-74
2023/12/31 04:49:58;;;;;;;0.50;0.10;;;8.00;99.90;;;;;;5023067;28;20539;-74
2023/12/31 04:52:27;;;;;;;0.50;0.10;;;8.00;99.90;;;;;;5014602;28;20602;-74
2023/12/31 04:54:54;;;;;;;0.50;0.10;;;8.00;99.90;;;;;;5034059;28;20573;-73
2023/12/31 04:57:22;;;;;;;0.50;0.10;;;7.90;99.90;;;;;;5030883;28;20485;-73
2023/12/31 04:59:50;;;;;;;0.50;0.10;;;8.00;99.90;;;;;;5032528;28;20534;-73
2023/12/31 05:02:20;;;;;;;0.50;0.10;;;7.90;99.90;;;;;;5032290;28;20455;-74
2023/12/31 05:04:47;;;;;;;0.50;0.10;;;7.90;99.90;;;;;;5023399;28;20982;-74
2023/12/31 05:07:15;;;;;;;0.50;0.10;;;7.90;99.90;;;;;;5013021;28;20484;-73
2023/12/31 05:09:43;;;;;;;0.50;0.10;;;7.90;99.90;;;;;;5013455;28;20455;-73
2023/12/31 05:12:11;;;;;;;0.50;0.10;;;7.90;99.90;;;;;;5013705;28;21045;-73
2023/12/31 05:14:39;;;;;;;0.50;0.20;;;7.90;99.90;;;;;;5015175;28;20451;-74
2023/12/31 05:17:07;;;;;;;0.50;0.10;;;7.90;99.90;;;;;;5024601;28;20470;-74
2023/12/31 05:19:36;;;;;;;0.50;0.10;;;7.90;99.90;;;;;;5013091;28;20496;-73
2023/12/31 05:22:04;;;;;;;0.50;0.10;;;7.80;99.90;;;;;;5024358;28;20498;-73
2023/12/31 05:24:32;;;;;;;0.50;0.10;;;7.80;99.90;;;;;;5024736;28;20531;-73
2023/12/31 05:27:00;;;;;;;0.50;0.10;;;7.80;99.90;;;;;;5029539;28;20501;-74
2023/12/31 05:29:28;;;;;;;0.50;0.10;;;7.80;99.90;;;;;;5013019;28;20489;-73
2023/12/31 05:31:56;;;;;;;0.50;0.10;;;7.90;99.90;;;;;;5012992;28;20535;-75
2023/12/31 05:34:24;;;;;;;0.50;0.10;;;;;;;;;;5018209;28;20467;-74
2023/12/31 05:36:53;;;;;;;0.50;0.10;;;7.90;99.90;;;;;;5030085;28;20468;-74
2023/12/31 05:39:21;;;;;;;0.50;0.10;;;8.00;99.90;;;;;;5032323;28;20875;-74
2023/12/31 05:41:49;;;;;;;0.50;0.10;;;7.90;99.90;;;;;;5032477;28;20528;-74
2023/12/31 05:44:17;;;;;;;0.50;0.10;;;7.90;99.90;;;;;;5032562;28;20452;-74
2023/12/31 05:46:44;;;;;;;0.50;0.10;;;9.80;99.90;;;;;;5031927;28;20596;-74
2023/12/31 05:49:12;;;;;;;0.50;0.10;;;8.00;99.90;;;;;;5032002;28;20461;-74
2023/12/31 05:51:40;;;;;;;0.50;0.10;;;8.00;99.90;;;;;;5030478;28;20541;-74
2023/12/31 05:54:10;;;;;;;0.50;0.10;;;8.00;99.90;;;;;;5032170;28;20524;-74
2023/12/31 05:56:37;;;;;;;0.50;0.10;;;7.90;99.90;;;;;;5031881;28;20471;-74
2023/12/31 05:59:05;;;;;;;0.50;0.10;;;8.00;99.90;;;;;;5029048;28;20499;-74
2023/12/31 06:01:33;;;;;;;0.50;0.10;;;7.90;99.90;;;;;;5012273;28;20444;-74
2023/12/31 06:04:01;;;;;;;0.50;0.10;;;8.00;99.90;;;;;;5012193;28;20907;-74
2023/12/31 06:06:33;;;;;;;0.50;0.10;;;8.00;99.90;;;;;;5025481;28;21077;-74
2023/12/31 06:09:01;;;;;;;0.50;0.10;;;8.10;99.90;;;;;;5031640;28;20538;-73
2023/12/31 06:11:30;;;;;;;0.60;0.20;;;8.10;99.90;;;;;;5031815;28;20498;-73
2023/12/31 06:13:58;;;;;;;0.50;0.10;;;8.10;99.90;;;;;;5031689;28;20928;-74
2023/12/31 06:16:26;;;;;;;0.50;0.10;;;8.10;99.90;;;;;;5031370;28;20553;-73
2023/12/31 06:18:54;;;;;;;0.50;0.10;;;8.00;99.90;;;;;;5032159;28;20450;-74
2023/12/31 06:21:22;;;;;;;0.50;0.10;;;8.10;99.90;;;;;;5032006;28;20470;-74
2023/12/31 06:23:50;;;;;;;0.50;0.10;;;8.10;99.90;;;;;;5022726;28;20471;-73
2023/12/31 06:26:18;;;;;;;0.50;0.10;;;8.10;99.90;;;;;;5030259;28;20516;-74
2023/12/31 06:28:47;;;;;;;0.50;0.10;;;8.00;99.90;;;;;;5031260;28;20447;-73
2023/12/31 06:31:15;;;;;;;0.50;0.10;;;8.00;99.90;;;;;;5023530;28;20524;-74
2023/12/31 06:33:43;;;;;;;0.50;0.10;;;7.90;99.90;;;;;;5031333;28;20989;-74
2023/12/31 06:36:10;;;;;;;0.50;0.10;;;7.90;99.90;;;;;;5019635;28;20487;-73
2023/12/31 06:38:40;;;;;;;0.50;0.10;;;8.00;99.90;;;;;;5015285;28;20456;-74
2023/12/31 06:41:08;;;;;;;0.50;0.10;;;8.10;99.90;;;;;;5031950;28;20471;-73
2023/12/31 06:43:36;;;;;;;0.50;0.10;;;8.10;99.90;;;;;;5031371;28;20459;-73
2023/12/31 06:46:06;;;;;;;0.60;0.20;;;8.10;99.90;;;;;;5031104;28;20467;-74
2023/12/31 06:48:34;;;;;;;0.50;0.10;;;8.20;99.90;;;;;;5031288;28;20443;-74
2023/12/31 06:51:02;;;;;;;0.50;0.10;;;8.20;99.90;;;;;;5020873;28;20475;-74
2023/12/31 06:53:30;;;;;;;0.50;0.10;;;;;;;;;;5011762;28;20447;-73
2023/12/31 06:55:58;;;;;;;0.50;0.27;;;8.30;99.90;;;;;;5022433;28;20806;-74
2023/12/31 06:58:26;;;;;;;7.60;2.77;;;8.30;99.90;;;;;;5017697;28;20822;-73
2023/12/31 07:00:53;;;;;;;0.50;0.10;;;8.40;99.90;;;;;;5028413;28;20571;-72
2023/12/31 07:03:23;;;;;;;0.50;0.10;;;8.40;99.90;;;;;;5021605;28;20458;-74
2023/12/31 07:05:51;;;;;;;0.50;0.10;;;8.40;99.90;;;;;;5014008;28;20534;-74
2023/12/31 07:08:18;;;;;;;0.50;0.10;;;8.50;99.90;;;;;;5011540;28;21024;-73
2023/12/31 07:10:47;;;;;;;0.50;0.10;;;;;;;;;;5011132;28;20453;-74
2023/12/31 07:13:15;;;;;;;0.50;0.10;;;8.50;99.90;;;;;;5014326;28;20511;-74
2023/12/31 07:15:44;;;;;;;0.50;0.10;;;8.50;99.90;;;;;;5032082;28;20445;-72
2023/12/31 07:18:12;;;;;;;0.50;0.10;;;8.50;99.90;;;;;;5035943;28;20455;-72
2023/12/31 07:20:41;;;;;;;0.50;0.10;;;8.50;99.90;;;;;;5027026;28;20529;-73
2023/12/31 07:23:09;;;;;;;0.50;0.10;;;8.50;99.90;;;;;;5011950;28;20479;-74
2023/12/31 07:25:37;;;;;;;0.50;0.10;;;8.50;99.90;;;;;;5011930;28;20446;-74
2023/12/31 07:28:06;;;;;;;0.50;0.10;;;8.50;99.90;;;;;;5011356;28;20987;-74
2023/12/31 07:30:34;;;;;;;0.50;0.10;;;;;;;;;;5011819;28;20492;-74
2023/12/31 07:33:02;;;;;;;0.50;0.10;;;8.50;99.90;;;;;;5011766;28;20452;-74
2023/12/31 07:35:34;;;;;;;0.50;0.10;;;8.50;99.90;;;;;;5011757;28;20936;-74
2023/12/31 07:38:05;;;;;;;0.50;0.10;;;8.40;99.90;;;;;;5028878;28;20485;-73
2023/12/31 07:40:33;;;;;;;0.50;0.10;;;8.40;99.90;;;;;;5041688;28;20482;-73
2023/12/31 07:43:02;;;;;;;0.50;0.10;;;8.40;99.90;;;;;;5042643;28;20436;-73
2023/12/31 07:45:31;;;;;;;0.50;0.10;;;8.40;99.90;;;;;;5040160;28;20517;-74
2023/12/31 07:47:59;;;;;;;0.50;0.10;;;8.50;99.90;;;;;;5034685;28;21051;-74
2023/12/31 07:50:27;;;;;;;0.50;0.10;;;8.50;99.90;;;;;;5034810;28;20467;-74
2023/12/31 07:52:55;;;;;;;0.50;0.10;;;8.50;99.90;;;;;;5034630;28;20453;-75
2023/12/31 07:55:24;;;;;;;0.50;0.10;;;8.50;99.90;;;;;;5033761;28;20519;-73
2023/12/31 07:57:52;;;;;;;0.50;0.10;;;8.50;99.90;;;;;;5034367;28;20467;-73
2023/12/31 08:00:20;;;;;;;0.50;0.10;;;8.40;99.90;;;;;;5034846;28;20526;-74
2023/12/31 08:02:48;;;;;;;0.50;0.10;;;8.30;99.90;;;;;;5034987;28;20546;-73
2023/12/31 08:05:16;;;;;;;0.50;0.10;;;8.40;99.90;;;;;;5033323;28;20466;-73
2023/12/31 08:07:44;;;;;;;0.50;0.10;;;8.40;99.90;;;;;;5033926;28;20805;-73
2023/12/31 08:10:12;;;;;;;0.50;0.10;;;8.50;99.90;;;;;;5034495;28;20443;-73
2023/12/31 08:12:43;;;;;;;0.50;0.10;;;8.40;99.90;;;;;;5031764;28;20447;-74
2023/12/31 08:15:11;;;;;;;0.50;0.10;;;;;;;;;;5014442;28;20479;-75
2023/12/31 08:17:39;;;;;;;0.50;0.10;;;8.50;99.90;;;;;;5014889;28;20563;-74
2023/12/31 08:20:07;;;;;;;0.50;0.10;;;8.50;99.90;;;;;;5018993;28;20462;-74
2023/12/31 08:22:42;;;;;;;0.50;0.10;;;;;;;;;;5034101;28;20443;-73
2023/12/31 08:25:12;;;;;;;0.50;0.10;;;8.50;99.90;;;;;;5034935;28;20448;-73
2023/12/31 08:27:42;;;;;;;0.50;0.10;;;8.50;99.90;;;;;;5033861;28;20488;-73
2023/12/31 08:30:11;;;;;;;0.50;0.10;;;;;;;;;;5034632;28;20447;-73
2023/12/31 08:32:39;;;;;;;0.50;0.10;;;8.40;99.90;;;;;;5034223;28;20448;-73
2023/12/31 08:35:08;;;;;;;0.50;0.10;;;8.50;99.90;;;;;;5033843;28;20449;-74
2023/12/31 08:37:36;;;;;;;0.50;0.10;;;8.50;99.90;;;;;;5020316;28;20484;-74
2023/12/31 08:40:06;;;;;;;0.50;0.10;;;8.60;99.90;;;;;;5014279;28;20448;-74
2023/12/31 08:42:34;;;;;;;0.50;0.10;;;8.70;99.90;;;;;;5022526;28;20448;-75
2023/12/31 08:45:06;;;;;;;0.50;0.10;;;;;;;;;;5033929;28;20455;-74
2023/12/31 08:47:35;;;;;;;0.50;0.10;;;8.70;99.90;;;;;;5033188;28;20542;-74
2023/12/31 08:50:08;;;;;;;0.50;0.10;;;8.70;99.90;;;;;;5031732;28;20448;-75
2023/12/31 08:52:39;;;;;;;0.50;0.10;;;8.70;99.90;;;;;;5033588;28;20445;-74
2023/12/31 08:55:07;;;;;;;0.50;0.10;;;8.70;99.90;;;;;;5020447;28;20464;-74
2023/12/31 08:57:36;;;;;;;0.50;0.10;;;8.70;99.90;;;;;;5013420;28;21082;-73
2023/12/31 09:00:07;;;;;;;0.50;0.10;;;8.70;99.90;;;;;;5014070;28;20483;-74
2023/12/31 09:02:34;;;;;;;0.50;0.10;;;8.70;99.90;;;;;;5014864;28;20530;-74
2023/12/31 09:05:03;;;;;;;0.50;0.10;;;8.80;99.90;;;;;;5021891;28;20538;-74
2023/12/31 09:07:34;;;;;;;0.50;0.10;;;8.80;99.90;;;;;;5033675;28;21067;-74
2023/12/31 09:10:03;;;;;;;0.50;0.10;;;8.80;99.90;;;;;;5033960;28;20449;-74
2023/12/31 09:12:31;;;;;;;0.50;0.10;;;8.90;99.90;;;;;;5031274;28;20457;-75
2023/12/31 09:15:00;;;;;;;0.50;0.10;;;8.90;99.90;;;;;;5032417;28;20451;-74
2023/12/31 09:17:29;;;;;;;0.50;0.10;;;9.00;99.90;;;;;;5028558;28;20557;-74
2023/12/31 09:19:57;;;;;;;0.50;0.10;;;8.90;99.90;;;;;;5021402;28;20506;-74
2023/12/31 09:22:26;;;;;;;0.50;0.10;;;9.00;99.90;;;;;;5033275;28;20470;-75
2023/12/31 09:24:54;;;;;;;0.50;0.10;;;9.00;99.90;;;;;;5033347;28;20441;-74
2023/12/31 09:27:22;;;;;;;0.50;0.10;;;9.00;99.90;;;;;;5024736;28;20552;-74
2023/12/31 09:29:50;;;;;;;0.50;0.10;;;9.00;99.90;;;;;;5033050;28;20528;-74
2023/12/31 09:32:18;;;;;;;0.50;0.10;;;9.00;99.90;;;;;;5016130;28;20521;-74
2023/12/31 09:34:48;;;;;;;0.50;0.10;;;9.00;99.90;;;;;;5033093;28;20483;-74
2023/12/31 09:37:19;;;;;;;0.50;0.10;;;9.00;99.90;;;;;;5032155;28;20481;-74
2023/12/31 09:39:47;;;;;;;0.50;0.10;;;9.10;99.90;;;;;;5033127;28;20495;-74
2023/12/31 09:42:23;;;;;;;0.50;0.10;;;9.00;99.90;;;;;;5032408;28;20449;-73
2023/12/31 09:44:51;;;;;;;0.50;0.20;;;9.00;99.90;;;;;;5032238;28;20540;-73
2023/12/31 09:47:19;;;;;;;0.50;0.10;;;8.90;99.90;;;;;;5036765;28;20494;-73
2023/12/31 09:49:49;;;;;;;0.50;0.10;;;8.80;99.90;;;;;;5037925;28;20483;-74
2023/12/31 09:52:18;;;;;;;0.50;0.10;;;8.80;99.90;;;;;;5032536;28;20472;-75
2023/12/31 09:54:46;;;;;;;0.50;0.10;;;8.70;99.90;;;;;;5025743;28;20464;-75
2023/12/31 09:57:17;;;;;;;0.50;0.10;;;8.70;99.90;;;;;;5012414;28;20476;-73
2023/12/31 09:59:48;;;;;;;0.50;0.10;;;8.60;99.90;;;;;;5028426;28;20747;-74
2023/12/31 10:02:21;;;;;;;0.50;0.10;;;8.70;99.90;;;;;;5014172;28;20452;-74
2023/12/31 10:04:51;;;;;;;0.50;0.10;;;8.70;99.90;;;;;;5027901;28;20447;-74
2023/12/31 10:07:22;;;;;;;0.50;0.10;;;8.80;99.90;;;;;;5020238;28;20530;-74
2023/12/31 10:09:51;;;;;;;0.50;0.10;;;8.80;99.90;;;;;;5028222;28;20482;-74
2023/12/31 10:12:20;;;;;;;0.50;0.10;;;8.80;99.90;;;;;;5029298;28;20467;-74
2023/12/31 10:14:48;;;;;;;0.50;0.10;;;8.80;99.90;;;;;;5014311;28;20528;-74
2023/12/31 10:17:17;;;;;;;0.50;0.10;;;7.00;99.90;;;;;;5029641;28;20491;-74
2023/12/31 10:19:46;;;;;;;0.50;0.10;;;;;;;;;;5013131;28;20467;-74
2023/12/31 10:22:15;;;;;;;0.50;0.10;;;8.80;99.90;;;;;;5021886;28;20470;-74
2023/12/31 10:24:43;;;;;;;0.50;0.10;;;8.90;99.90;;;;;;5032418;28;20500;-75
2023/12/31 10:27:13;;;;;;;0.50;0.10;;;8.90;99.90;;;;;;5031507;28;20573;-74
2023/12/31 10:29:41;;;;;;;0.63;0.63;;;9.00;99.90;;;;;;5031491;28;21024;-73
2023/12/31 10:32:09;;;;;;;0.50;0.10;;;9.00;99.90;;;;;;5023340;28;20824;-73
2023/12/31 10:34:37;;;;;;;0.50;0.10;;;9.10;99.90;;;;;;5032002;28;20526;-74
2023/12/31 10:37:06;;;;;;;0.50;0.10;;;9.20;99.90;;;;;;5031049;28;20537;-74
2023/12/31 10:39:38;;;;;;;0.50;0.10;;;9.20;99.90;;;;;;5013893;28;20881;-74
2023/12/31 10:42:07;;;;;;;0.50;0.10;;;9.20;99.90;;;;;;5032979;28;20934;-74
2023/12/31 10:44:37;;;;;;;0.50;0.10;;;9.20;99.90;;;;;;5037154;28;20440;-73
2023/12/31 10:47:07;;;;;;;0.50;0.10;;;9.30;99.90;;;;;;5036682;28;20529;-74
2023/12/31 10:49:36;;;;;;;0.50;0.10;;;9.40;99.90;;;;;;5026116;28;20526;-74
2023/12/31 10:52:06;;;;;;;0.50;0.10;;;9.40;99.90;;;;;;5032259;28;20821;-75
2023/12/31 10:54:44;;;;;;;0.50;0.10;;;9.40;99.90;;;;;;5031873;28;20438;-73
2023/12/31 10:57:12;;;;;;;0.50;0.10;;;9.40;99.90;;;;;;5014920;28;20496;-74
2023/12/31 10:59:42;;;;;;;0.50;0.10;;;9.40;99.90;;;;;;5012498;28;20450;-75
2023/12/31 11:02:16;;;;;;;0.50;0.10;;;8.10;99.90;;;;;;5012406;28;20505;-74
2023/12/31 11:04:45;;;;;;;0.50;0.10;;;9.40;99.90;;;;;;5012303;28;20456;-74
2023/12/31 11:07:15;;;;;;;0.50;0.10;;;9.40;99.90;;;;;;5019691;28;21050;-73
2023/12/31 11:09:46;;;;;;;0.50;0.10;;;9.50;99.90;;;;;;5012264;28;20484;-74
2023/12/31 11:12:15;;;;;;;0.50;0.10;;;9.50;99.90;;;;;;5012379;28;20444;-75
2023/12/31 11:14:48;;;;;;;0.50;0.10;;;9.50;99.90;;;;;;5026947;28;20980;-74
2023/12/31 11:17:32;;;;;;;0.50;0.10;;;9.60;99.90;;;;;;5024741;28;20460;-74
2023/12/31 11:20:36;;;;;;;0.50;0.10;;;9.60;99.90;;;;;;5033196;28;20544;-73
2023/12/31 11:23:14;;;;;;;0.50;0.10;;;9.60;99.90;;;;;;5026317;28;20897;-74
2023/12/31 11:25:46;;;;;;;0.50;0.10;;;9.60;99.90;;;;;;5035514;28;20514;-74
2023/12/31 11:28:14;;;;;;;0.50;0.20;;;9.60;99.90;;;;;;5035106;28;20466;-74
2023/12/31 11:30:46;;;;;;;0.70;0.30;;;9.60;99.90;;;;;;5034603;28;20518;-73
2023/12/31 11:33:17;;;;;;;1.20;0.60;;;9.50;99.90;;;;;;5034682;28;20453;-73
2023/12/31 11:35:45;;;;;;;1.60;1.10;;;9.50;99.90;;;;;;5020530;28;20756;-76
2023/12/31 11:38:14;;;;;;;0.50;0.20;;;9.30;99.90;;;;;;5015656;28;20552;-73
2023/12/31 11:40:43;;;;;;;0.50;0.10;;;9.30;99.90;;;;;;5023609;28;20979;-73
2023/12/31 11:43:13;;;;;;;4.60;0.83;;;9.20;99.90;;;;;;5026783;28;20502;-74
2023/12/31 11:45:42;;;;;;;0.60;0.60;;;9.20;99.90;;;;;;5021491;28;20467;-73
2023/12/31 11:48:23;;;;;;;0.50;0.10;;;9.20;99.90;;;;;;5016236;28;20470;-74
2023/12/31 11:50:52;;;;;;;0.50;0.10;;;9.20;99.90;;;;;;5035295;28;20536;-74
2023/12/31 11:53:22;;;;;;;0.50;0.10;;;9.30;99.90;;;;;;5035068;28;20464;-74
2023/12/31 11:55:54;;;;;;;0.50;0.30;;;9.40;99.90;;;;;;5025868;28;20468;-74
2023/12/31 11:58:22;;;;;;;0.50;0.10;;;9.40;99.90;;;;;;5035752;28;20503;-75
2023/12/31 12:00:50;;;;;;;0.50;0.10;;;9.50;99.90;;;;;;5034964;28;20981;-75
2023/12/31 12:03:19;;;;;;;0.50;0.10;;;;;;;;;;5026672;28;20501;-74
2023/12/31 12:05:49;;;;;;;11.43;1.37;;;9.50;99.90;;;;;;5026729;28;20532;-75
2023/12/31 12:08:18;;;;;;;0.50;0.10;;;9.50;99.90;;;;;;5034818;28;20470;-74
2023/12/31 12:10:46;;;;;;;0.50;0.20;;;9.60;99.90;;;;;;5020921;28;20568;-77
2023/12/31 12:13:15;;;;;;;0.50;0.20;;;9.60;99.90;;;;;;5020444;28;20451;-75
2023/12/31 12:15:43;;;;;;;0.60;0.57;;;9.60;99.90;;;;;;5014815;28;20455;-81
2023/12/31 12:18:19;;;;;;;0.60;0.40;;;9.60;99.90;;;;;;5014698;28;20492;-74
2023/12/31 12:20:47;;;;;;;0.50;0.10;;;9.60;99.90;;;;;;5020575;28;20436;-75
2023/12/31 12:23:18;;;;;;;0.50;0.10;;;9.60;99.90;;;;;;5026176;28;20446;-75
2023/12/31 12:25:46;;;;;;;0.60;0.20;;;9.60;99.90;;;;;;5031550;28;20469;-74
2023/12/31 12:28:16;;;;;;;0.50;0.10;;;;;;;;;;5026417;28;21000;-74
2023/12/31 12:30:44;;;;;;;0.50;0.10;;;9.60;99.90;;;;;;5034767;28;20483;-75
2023/12/31 12:33:12;;;;;;;0.50;0.10;;;9.60;99.90;;;;;;5025468;28;21004;-75
2023/12/31 12:35:43;;;;;;;0.50;0.10;;;9.60;99.90;;;;;;5014460;28;20547;-74
2023/12/31 12:38:12;;;;;;;0.50;0.10;;;9.60;99.90;;;;;;5023884;28;20501;-75
2023/12/31 12:40:42;;;;;;;0.50;0.10;;;9.70;99.90;;;;;;5034436;28;20481;-76
2023/12/31 12:43:13;;;;;;;0.50;0.10;;;9.70;99.90;;;;;;5025952;28;20460;-73
2023/12/31 12:45:43;;;;;;;0.50;0.10;;;;;;;;;;5034759;28;20445;-74
2023/12/31 12:48:11;;;;;;;0.50;0.10;;;9.70;99.90;;;;;;5034414;28;20469;-74
2023/12/31 12:50:42;;;;;;;0.50;0.10;;;9.80;99.90;;;;;;5027887;28;20592;-74
2023/12/31 12:53:10;;;;;;;0.50;0.10;;;9.70;99.90;;;;;;5018213;28;20481;-74
2023/12/31 12:55:38;;;;;;;0.50;0.10;;;9.80;99.90;;;;;;5014982;28;20849;-74
2023/12/31 12:58:06;;;;;;;9.13;8.37;;;9.70;99.90;;;;;;5030464;28;20515;-74
2023/12/31 13:00:33;;;;;;;0.50;0.10;;;9.70;99.90;;;;;;5022093;28;20508;-75
2023/12/31 13:03:02;;;;;;;0.50;0.10;;;;;;;;;;5029736;28;20473;-74
2023/12/31 13:05:31;;;;;;;0.50;0.10;;;9.80;99.90;;;;;;5033751;28;20810;-74
2023/12/31 13:07:59;;;;;;;0.53;0.27;;;9.80;99.90;;;;;;5025323;28;20472;-74
2023/12/31 13:10:27;;;;;;;0.50;0.10;;;9.90;99.90;;;;;;5025053;28;20549;-74